createdAt,value
2023-07-02T00:00:02.924Z,59.20
2023-07-02T00:02:38.033Z,59.00
2023-07-02T00:05:07.108Z,59.70
2023-07-02T00:07:35.665Z,59.20
2023-07-02T00:10:03.210Z,59.40
2023-07-02T00:12:30.402Z,59.40
2023-07-02T00:14:58.118Z,59.30
2023-07-02T00:17:26.448Z,59.30
2023-07-02T00:19:53.846Z,59.60
2023-07-02T00:22:21.349Z,59.40
2023-07-02T00:24:48.540Z,59.70
2023-07-02T00:27:15.613Z,59.20
2023-07-02T00:29:42.796Z,59.20
2023-07-02T00:32:09.929Z,59.30
2023-07-02T00:34:36.978Z,59.10
2023-07-02T00:37:04.220Z,59.00
2023-07-02T00:39:31.313Z,59.20
2023-07-02T00:42:05.590Z,59.00
2023-07-02T00:44:33.363Z,58.90
2023-07-02T00:47:01.016Z,58.80
2023-07-02T00:49:28.223Z,58.60
2023-07-02T00:51:55.446Z,58.80
2023-07-02T00:54:22.477Z,58.70
2023-07-02T00:56:49.507Z,58.50
2023-07-02T00:59:16.697Z,58.40
2023-07-02T01:01:43.743Z,58.20
2023-07-02T01:04:13.560Z,58.30
2023-07-02T01:06:42.337Z,58.00
2023-07-02T01:09:10.005Z,58.00
2023-07-02T01:11:41.352Z,57.90
2023-07-02T01:14:17.379Z,57.80
2023-07-02T01:16:45.020Z,57.70
2023-07-02T01:19:14.693Z,57.70
2023-07-02T01:21:41.756Z,57.70
2023-07-02T01:24:09.116Z,57.70
2023-07-02T01:26:37.811Z,57.70
2023-07-02T01:29:17.877Z,57.70
2023-07-02T01:31:45.183Z,57.40
2023-07-02T01:34:12.573Z,57.80
2023-07-02T01:36:39.767Z,58.10
2023-07-02T01:39:08.170Z,58.70
2023-07-02T01:41:50.073Z,58.90
2023-07-02T01:44:17.630Z,59.00
2023-07-02T01:46:45.986Z,59.30
2023-07-02T01:49:13.044Z,59.50
2023-07-02T01:51:40.034Z,59.30
2023-07-02T01:54:07.417Z,59.40
2023-07-02T01:56:34.813Z,59.40
2023-07-02T01:59:01.818Z,59.60
2023-07-02T02:01:29.017Z,59.80
2023-07-02T02:03:56.667Z,60.50
2023-07-02T02:06:23.680Z,60.60
2023-07-02T02:08:50.795Z,60.70
2023-07-02T02:11:17.836Z,60.60
2023-07-02T02:13:44.845Z,60.40
2023-07-02T02:16:12.127Z,60.20
2023-07-02T02:18:39.899Z,60.10
2023-07-02T02:21:06.878Z,59.80
2023-07-02T02:23:34.664Z,59.70
2023-07-02T02:26:01.912Z,59.50
2023-07-02T02:28:29.347Z,59.20
2023-07-02T02:30:56.355Z,59.10
2023-07-02T02:33:23.759Z,58.90
2023-07-02T02:35:52.004Z,58.70
2023-07-02T02:38:19.162Z,58.50
2023-07-02T02:40:47.284Z,58.40
2023-07-02T02:43:18.330Z,58.20
2023-07-02T02:45:46.709Z,58.20
2023-07-02T02:48:13.879Z,58.20
2023-07-02T02:50:42.355Z,58.20
2023-07-02T02:53:09.778Z,58.10
2023-07-02T02:55:37.510Z,58.30
2023-07-02T02:58:05.897Z,58.70
2023-07-02T03:00:32.940Z,58.90
2023-07-02T03:03:00.494Z,59.00
2023-07-02T03:05:27.612Z,58.90
2023-07-02T03:07:54.851Z,58.60
2023-07-02T03:10:22.543Z,59.10
2023-07-02T03:12:49.531Z,59.30
2023-07-02T03:15:18.682Z,59.40
2023-07-02T03:17:45.812Z,59.00
2023-07-02T03:20:12.958Z,58.70
2023-07-02T03:22:40.376Z,58.20
2023-07-02T03:25:08.025Z,57.60
2023-07-02T03:27:35.168Z,57.00
2023-07-02T03:30:02.851Z,56.40
2023-07-02T03:32:30.583Z,55.80
2023-07-02T03:34:58.031Z,55.30
2023-07-02T03:37:25.274Z,54.90
2023-07-02T03:39:52.313Z,54.30
2023-07-02T03:42:19.674Z,53.90
2023-07-02T03:44:46.843Z,53.50
2023-07-02T03:47:17.310Z,53.10
2023-07-02T03:49:44.434Z,53.10
2023-07-02T03:52:13.513Z,53.30
2023-07-02T03:54:40.784Z,53.40
2023-07-02T03:57:07.929Z,53.30
2023-07-02T03:59:35.976Z,53.80
2023-07-02T04:02:02.965Z,54.40
2023-07-02T04:04:30.145Z,54.60
2023-07-02T04:06:57.675Z,54.70
2023-07-02T04:09:24.687Z,54.80
2023-07-02T04:11:51.674Z,54.80
2023-07-02T04:14:18.684Z,54.90
2023-07-02T04:16:46.010Z,55.00
2023-07-02T04:19:13.436Z,55.00
2023-07-02T04:21:40.515Z,54.90
2023-07-02T04:24:07.573Z,54.90
2023-07-02T04:27:47.477Z,54.90
2023-07-02T04:29:22.820Z,54.90
2023-07-02T04:31:49.895Z,54.70
2023-07-02T04:34:16.933Z,54.60
2023-07-02T04:36:44.620Z,54.60
2023-07-02T04:39:12.086Z,54.40
2023-07-02T04:41:39.153Z,54.40
2023-07-02T04:44:06.146Z,54.40
2023-07-02T04:46:33.384Z,54.60
2023-07-02T04:49:00.600Z,54.50
2023-07-02T04:51:27.983Z,54.40
2023-07-02T04:53:55.841Z,54.00
2023-07-02T04:56:22.825Z,54.00
2023-07-02T04:58:49.821Z,54.30
2023-07-02T05:01:16.989Z,54.50
2023-07-02T05:03:44.070Z,54.00
2023-07-02T05:06:11.082Z,53.50
2023-07-02T05:08:38.101Z,53.00
2023-07-02T05:11:05.068Z,52.00
2023-07-02T05:13:32.885Z,51.50
2023-07-02T05:15:59.866Z,51.70
2023-07-02T05:18:30.134Z,51.80
2023-07-02T05:20:57.186Z,51.50
2023-07-02T05:23:24.152Z,52.10
2023-07-02T05:25:51.747Z,51.70
2023-07-02T05:28:18.792Z,51.20
2023-07-02T05:30:45.865Z,51.10
2023-07-02T05:33:13.657Z,51.10
2023-07-02T05:35:40.701Z,51.10
2023-07-02T05:38:07.842Z,51.60
2023-07-02T05:40:34.800Z,52.00
2023-07-02T05:43:01.861Z,52.20
2023-07-02T05:45:30.043Z,51.40
2023-07-02T05:47:57.705Z,50.30
2023-07-02T05:50:25.073Z,51.10
2023-07-02T05:52:52.261Z,50.10
2023-07-02T05:55:19.865Z,49.80
2023-07-02T05:57:47.218Z,49.70
2023-07-02T06:00:14.730Z,48.90
2023-07-02T06:02:41.807Z,48.30
2023-07-02T06:05:10.070Z,47.30
2023-07-02T06:07:38.751Z,46.10
2023-07-02T06:10:07.359Z,46.70
2023-07-02T06:12:34.604Z,46.90
2023-07-02T06:15:01.746Z,46.20
2023-07-02T06:17:32.458Z,46.20
2023-07-02T06:20:00.654Z,44.90
2023-07-02T06:22:27.813Z,45.90
2023-07-02T06:24:55.937Z,44.90
2023-07-02T06:27:23.946Z,45.40
2023-07-02T06:29:53.395Z,44.70
2023-07-02T06:32:20.642Z,45.10
2023-07-02T06:34:47.683Z,44.70
2023-07-02T06:37:14.750Z,46.40
2023-07-02T06:39:41.725Z,47.20
2023-07-02T06:42:09.316Z,47.50
2023-07-02T06:44:40.043Z,46.60
2023-07-02T06:47:08.260Z,46.70
2023-07-02T06:49:35.255Z,47.10
2023-07-02T06:52:02.839Z,47.60
2023-07-02T06:54:30.129Z,46.70
2023-07-02T06:57:00.168Z,48.00
2023-07-02T06:59:27.995Z,47.60
2023-07-02T07:01:55.027Z,47.00
2023-07-02T07:04:25.511Z,47.40
2023-07-02T07:06:56.481Z,46.80
2023-07-02T07:09:24.100Z,47.30
2023-07-02T07:11:54.188Z,47.90
2023-07-02T07:14:21.334Z,46.90
2023-07-02T07:16:48.332Z,47.60
2023-07-02T07:19:15.399Z,47.20
2023-07-02T07:21:43.789Z,48.60
2023-07-02T07:24:14.484Z,47.00
2023-07-02T07:26:41.522Z,49.00
2023-07-02T07:29:08.468Z,46.80
2023-07-02T07:31:36.055Z,47.50
2023-07-02T07:34:03.094Z,46.70
2023-07-02T07:36:30.369Z,48.30
2023-07-02T07:38:59.809Z,47.30
2023-07-02T07:41:27.902Z,48.10
2023-07-02T07:43:54.880Z,48.20
2023-07-02T07:46:24.891Z,47.80
2023-07-02T07:48:52.893Z,49.50
2023-07-02T07:51:19.876Z,49.10
2023-07-02T07:53:47.492Z,49.40
2023-07-02T07:56:14.507Z,50.30
2023-07-02T07:58:41.475Z,50.10
2023-07-02T08:01:08.545Z,49.80
2023-07-02T08:03:38.975Z,49.70
2023-07-02T08:06:06.618Z,49.60
2023-07-02T08:08:33.695Z,50.00
2023-07-02T08:11:00.843Z,50.20
2023-07-02T08:13:28.212Z,50.50
2023-07-02T08:15:55.366Z,50.10
2023-07-02T08:18:22.980Z,50.30
2023-07-02T08:20:50.258Z,50.70
2023-07-02T08:23:18.599Z,50.70
2023-07-02T08:25:45.596Z,50.50
2023-07-02T08:28:12.612Z,50.30
2023-07-02T08:30:39.603Z,50.00
2023-07-02T08:33:07.670Z,49.50
2023-07-02T08:35:34.729Z,49.60
2023-07-02T08:38:02.368Z,48.50
2023-07-02T08:40:29.847Z,47.90
2023-07-02T08:42:57.265Z,48.00
2023-07-02T08:45:26.496Z,48.30
2023-07-02T08:47:57.651Z,48.60
2023-07-02T08:50:26.889Z,48.50
2023-07-02T08:52:55.003Z,48.40
2023-07-02T08:55:23.547Z,48.60
2023-07-02T08:57:53.433Z,48.30
2023-07-02T09:00:21.032Z,47.90
2023-07-02T09:02:48.234Z,48.00
2023-07-02T09:05:15.293Z,48.00
2023-07-02T09:07:51.880Z,47.90
2023-07-02T09:10:31.409Z,47.80
2023-07-02T09:13:06.166Z,47.90
2023-07-02T09:15:40.454Z,48.40
2023-07-02T09:18:24.844Z,48.30
2023-07-02T09:20:53.332Z,48.20
2023-07-02T09:23:20.746Z,47.10
2023-07-02T09:25:47.946Z,47.10
2023-07-02T09:28:22.609Z,46.60
2023-07-02T09:30:58.031Z,47.10
2023-07-02T09:33:30.065Z,47.00
2023-07-02T09:35:57.887Z,47.20
2023-07-02T09:38:24.930Z,46.90
2023-07-02T09:40:53.980Z,46.90
2023-07-02T09:43:21.139Z,46.80
2023-07-02T09:45:49.135Z,46.60
2023-07-02T09:48:17.582Z,46.40
2023-07-02T09:50:50.122Z,46.20
2023-07-02T09:53:17.643Z,46.30
2023-07-02T09:55:44.990Z,46.70
2023-07-02T09:58:15.259Z,46.30
2023-07-02T10:00:43.183Z,46.20
2023-07-02T10:03:10.474Z,46.40
2023-07-02T10:05:38.015Z,46.40
2023-07-02T10:08:17.994Z,46.50
2023-07-02T10:10:45.128Z,46.50
2023-07-02T10:13:12.250Z,45.90
2023-07-02T10:15:40.961Z,46.10
2023-07-02T10:18:08.502Z,46.80
2023-07-02T10:20:40.072Z,45.70
2023-07-02T10:23:08.306Z,45.70
2023-07-02T10:25:38.280Z,45.60
2023-07-02T10:28:20.954Z,45.70
2023-07-02T10:30:48.296Z,45.50
2023-07-02T10:33:16.668Z,45.40
2023-07-02T10:35:46.137Z,46.00
2023-07-02T10:38:21.869Z,45.80
2023-07-02T10:40:54.696Z,45.00
2023-07-02T10:43:31.424Z,44.40
2023-07-02T10:46:01.245Z,44.80
2023-07-02T10:48:29.156Z,45.10
2023-07-02T10:50:56.942Z,44.80
2023-07-02T10:53:24.008Z,44.50
2023-07-02T10:56:08.349Z,44.30
2023-07-02T10:58:43.338Z,45.00
2023-07-02T11:01:12.318Z,44.80
2023-07-02T11:03:39.723Z,44.60
2023-07-02T11:06:06.914Z,45.60
2023-07-02T11:08:37.895Z,44.50
2023-07-02T11:11:09.688Z,44.30
2023-07-02T11:13:48.123Z,44.30
2023-07-02T11:16:29.497Z,44.70
2023-07-02T11:19:10.140Z,45.20
2023-07-02T11:21:38.085Z,44.50
2023-07-02T11:24:06.127Z,44.40
2023-07-02T11:26:41.201Z,45.00
2023-07-02T11:29:19.216Z,44.10
2023-07-02T11:31:46.301Z,44.10
2023-07-02T11:34:19.009Z,44.40
2023-07-02T11:36:46.614Z,45.00
2023-07-02T11:39:13.607Z,44.30
2023-07-02T11:41:45.557Z,44.00
2023-07-02T11:44:13.855Z,43.20
2023-07-02T11:46:40.866Z,43.20
2023-07-02T11:49:10.750Z,43.20
2023-07-02T11:51:38.653Z,43.10
2023-07-02T11:54:06.573Z,43.60
2023-07-02T11:56:33.875Z,43.30
2023-07-02T11:59:02.363Z,43.10
2023-07-02T12:01:32.110Z,42.70
2023-07-02T12:03:59.891Z,43.10
2023-07-02T12:06:26.893Z,43.10
2023-07-02T12:08:53.933Z,43.10
2023-07-02T12:11:20.959Z,42.60
2023-07-02T12:13:48.121Z,43.00
2023-07-02T12:16:15.306Z,42.60
2023-07-02T12:18:42.403Z,43.00
2023-07-02T12:21:10.519Z,42.80
2023-07-02T12:23:38.047Z,43.20
2023-07-02T12:26:05.482Z,42.60
2023-07-02T12:28:32.434Z,42.80
2023-07-02T12:31:00.051Z,42.60
2023-07-02T12:33:27.301Z,42.30
2023-07-02T12:35:54.356Z,42.10
2023-07-02T12:38:21.724Z,42.50
2023-07-02T12:40:49.870Z,42.00
2023-07-02T12:43:16.933Z,41.00
2023-07-02T12:45:47.027Z,40.20
2023-07-02T12:48:14.421Z,40.20
2023-07-02T12:50:41.532Z,40.80
2023-07-02T12:53:10.152Z,41.40
2023-07-02T12:55:37.138Z,41.00
2023-07-02T12:58:05.115Z,40.90
2023-07-02T13:00:32.515Z,41.30
2023-07-02T13:03:04.353Z,41.40
2023-07-02T13:05:32.317Z,42.50
2023-07-02T13:07:59.648Z,43.30
2023-07-02T13:10:27.085Z,44.90
2023-07-02T13:12:54.084Z,46.50
2023-07-02T13:15:21.090Z,47.90
2023-07-02T13:17:48.671Z,48.20
2023-07-02T13:20:15.852Z,50.00
2023-07-02T13:22:42.996Z,50.10
2023-07-02T13:25:10.541Z,51.10
2023-07-02T13:27:38.429Z,51.90
2023-07-02T13:30:06.501Z,51.70
2023-07-02T13:32:33.619Z,52.10
2023-07-02T13:35:00.685Z,52.50
2023-07-02T13:37:27.742Z,52.70
2023-07-02T13:39:55.049Z,53.10
2023-07-02T13:42:22.091Z,52.10
2023-07-02T13:44:51.391Z,52.10
2023-07-02T13:47:21.666Z,51.90
2023-07-02T13:49:48.914Z,51.80
2023-07-02T13:52:15.886Z,51.90
2023-07-02T13:54:42.894Z,51.60
2023-07-02T13:57:12.984Z,51.40
2023-07-02T13:59:40.350Z,51.20
2023-07-02T14:02:07.465Z,51.00
2023-07-02T14:04:35.070Z,50.80
2023-07-02T14:07:04.765Z,50.40
2023-07-02T14:09:32.497Z,50.70
2023-07-02T14:12:00.937Z,50.90
2023-07-02T14:14:27.921Z,50.60
2023-07-02T14:16:56.064Z,50.20
2023-07-02T14:19:26.136Z,50.10
2023-07-02T14:21:53.663Z,50.00
2023-07-02T14:24:20.641Z,49.40
2023-07-02T14:26:47.658Z,49.40
2023-07-02T14:29:14.694Z,49.90
2023-07-02T14:31:41.803Z,49.30
2023-07-02T14:34:08.888Z,49.90
2023-07-02T14:36:35.896Z,49.60
2023-07-02T14:39:02.878Z,49.30
2023-07-02T14:41:31.895Z,48.90
2023-07-02T14:43:58.909Z,48.70
2023-07-02T14:46:26.393Z,48.60
2023-07-02T14:48:53.712Z,48.60
2023-07-02T14:51:21.850Z,48.50
2023-07-02T14:53:48.853Z,48.30
2023-07-02T14:56:15.837Z,48.20
2023-07-02T14:58:42.827Z,48.00
2023-07-02T15:01:09.975Z,47.80
2023-07-02T15:03:37.098Z,47.70
2023-07-02T15:06:15.553Z,48.30
2023-07-02T15:08:42.880Z,47.10
2023-07-02T15:11:10.641Z,46.50
2023-07-02T15:13:39.447Z,46.30
2023-07-02T15:16:06.914Z,46.20
2023-07-02T15:18:33.892Z,47.30
2023-07-02T15:21:01.709Z,46.60
2023-07-02T15:23:29.206Z,46.40
2023-07-02T15:25:58.205Z,45.80
2023-07-02T15:28:25.641Z,45.70
2023-07-02T15:31:00.639Z,46.40
2023-07-02T15:33:29.008Z,46.30
2023-07-02T15:35:56.403Z,45.80
2023-07-02T15:38:23.769Z,45.60
2023-07-02T15:41:05.653Z,45.20
2023-07-02T15:43:32.708Z,45.40
2023-07-02T15:46:00.094Z,45.70
2023-07-02T15:48:28.077Z,45.60
2023-07-02T15:50:55.039Z,45.70
2023-07-02T15:53:24.359Z,45.70
2023-07-02T15:55:57.958Z,46.40
2023-07-02T15:58:26.004Z,45.80
2023-07-02T16:00:53.865Z,46.70
2023-07-02T16:03:21.842Z,45.50
2023-07-02T16:05:59.659Z,45.90
2023-07-02T16:08:27.617Z,45.50
2023-07-02T16:10:54.612Z,46.00
2023-07-02T16:13:21.627Z,45.10
2023-07-02T16:15:49.102Z,44.80
2023-07-02T16:18:16.391Z,45.20
2023-07-02T16:20:43.362Z,46.30
2023-07-02T16:23:10.706Z,46.00
2023-07-02T16:25:37.778Z,46.90
2023-07-02T16:28:05.344Z,45.30
2023-07-02T16:30:34.349Z,45.90
2023-07-02T16:33:02.090Z,45.00
2023-07-02T16:35:29.075Z,45.30
2023-07-02T16:37:56.722Z,46.20
2023-07-02T16:40:23.838Z,45.30
2023-07-02T16:42:50.820Z,45.70
2023-07-02T16:45:17.838Z,46.10
2023-07-02T16:47:45.740Z,45.40
2023-07-02T16:50:12.797Z,45.50
2023-07-02T16:52:39.820Z,46.20
2023-07-02T16:55:07.696Z,46.40
2023-07-02T16:57:35.082Z,45.90
2023-07-02T17:00:04.912Z,46.30
2023-07-02T17:02:32.014Z,45.70
2023-07-02T17:04:59.874Z,46.40
2023-07-02T17:07:27.984Z,46.60
2023-07-02T17:09:55.507Z,46.90
2023-07-02T17:12:22.640Z,46.10
2023-07-02T17:14:50.846Z,46.50
2023-07-02T17:17:20.978Z,46.40
2023-07-02T17:19:50.170Z,46.70
2023-07-02T17:22:19.277Z,45.70
2023-07-02T17:24:47.590Z,45.90
2023-07-02T17:27:15.867Z,44.20
2023-07-02T17:29:43.409Z,46.10
2023-07-02T17:32:10.865Z,45.70
2023-07-02T17:34:38.148Z,46.30
2023-07-02T17:37:07.788Z,45.80
2023-07-02T17:39:35.960Z,45.00
2023-07-02T17:42:04.830Z,45.40
2023-07-02T17:44:34.253Z,46.50
2023-07-02T17:47:07.918Z,45.40
2023-07-02T17:49:42.080Z,45.40
2023-07-02T17:52:10.592Z,45.60
2023-07-02T17:54:39.755Z,44.90
2023-07-02T17:57:07.649Z,45.60
2023-07-02T17:59:35.745Z,46.10
2023-07-02T18:02:04.117Z,46.10
2023-07-02T18:04:31.853Z,45.30
2023-07-02T18:07:09.096Z,45.30
2023-07-02T18:09:38.680Z,46.70
2023-07-02T18:12:06.826Z,46.40
2023-07-02T18:14:33.874Z,46.60
2023-07-02T18:17:00.965Z,47.30
2023-07-02T18:19:30.270Z,47.90
2023-07-02T18:22:04.098Z,48.10
2023-07-02T18:24:31.879Z,48.70
2023-07-02T18:26:59.919Z,48.50
2023-07-02T18:29:27.453Z,49.10
2023-07-02T18:31:55.057Z,49.50
2023-07-02T18:34:22.082Z,49.70
2023-07-02T18:36:50.438Z,49.70
2023-07-02T18:39:18.067Z,49.60
2023-07-02T18:41:46.460Z,48.90
2023-07-02T18:44:13.488Z,48.60
2023-07-02T18:46:41.588Z,48.70
2023-07-02T18:49:08.987Z,49.10
2023-07-02T18:51:36.104Z,49.40
2023-07-02T18:54:03.100Z,49.50
2023-07-02T18:56:30.666Z,49.50
2023-07-02T18:58:58.027Z,49.80
2023-07-02T19:01:25.942Z,49.80
2023-07-02T19:03:55.394Z,49.80
2023-07-02T19:06:22.421Z,49.80
2023-07-02T19:08:49.605Z,49.90
2023-07-02T19:11:16.677Z,49.70
2023-07-02T19:13:43.661Z,49.70
2023-07-02T19:16:10.774Z,49.60
2023-07-02T19:18:37.793Z,49.60
2023-07-02T19:21:08.787Z,50.10
2023-07-02T19:23:36.091Z,50.50
2023-07-02T19:26:04.369Z,50.20
2023-07-02T19:28:31.889Z,50.10
2023-07-02T19:31:06.281Z,51.40
2023-07-02T19:33:35.092Z,50.60
2023-07-02T19:36:07.445Z,50.70
2023-07-02T19:38:34.918Z,51.00
2023-07-02T19:41:03.313Z,50.70
2023-07-02T19:43:30.303Z,51.20
2023-07-02T19:46:02.637Z,50.80
2023-07-02T19:48:29.909Z,51.20
2023-07-02T19:51:04.935Z,50.90
2023-07-02T19:53:32.545Z,50.90
2023-07-02T19:56:00.942Z,51.50
2023-07-02T19:58:28.919Z,51.90
2023-07-02T20:00:55.876Z,52.60
2023-07-02T20:03:26.890Z,52.40
2023-07-02T20:05:55.307Z,52.00
2023-07-02T20:08:23.352Z,52.20
2023-07-02T20:10:50.464Z,52.50
2023-07-02T20:13:17.476Z,52.30
2023-07-02T20:15:45.010Z,52.10
2023-07-02T20:18:12.194Z,52.80
2023-07-02T20:20:39.841Z,52.70
2023-07-02T20:23:06.869Z,52.20
2023-07-02T20:25:50.089Z,52.90
2023-07-02T20:28:27.822Z,53.20
2023-07-02T20:30:56.053Z,52.40
2023-07-02T20:33:23.596Z,52.50
2023-07-02T20:35:51.190Z,52.80
2023-07-02T20:38:18.646Z,52.50
2023-07-02T20:40:45.624Z,52.50
2023-07-02T20:43:15.222Z,52.40
2023-07-02T20:45:42.673Z,52.30
2023-07-02T20:48:16.921Z,52.90
2023-07-02T20:50:44.073Z,52.60
2023-07-02T20:53:11.162Z,53.00
2023-07-02T20:55:38.156Z,53.40
2023-07-02T20:58:05.631Z,53.60
2023-07-02T21:00:32.660Z,53.40
2023-07-02T21:02:59.734Z,53.30
2023-07-02T21:05:26.897Z,53.20
2023-07-02T21:07:54.084Z,53.00
2023-07-02T21:10:21.084Z,52.80
2023-07-02T21:12:48.104Z,53.00
2023-07-02T21:15:15.152Z,52.70
2023-07-02T21:17:43.393Z,52.90
2023-07-02T21:20:11.276Z,52.90
2023-07-02T21:22:38.560Z,52.90
2023-07-02T21:25:06.203Z,52.90
2023-07-02T21:27:35.956Z,52.80
2023-07-02T21:30:04.817Z,52.80
2023-07-02T21:32:32.141Z,52.90
2023-07-02T21:35:00.093Z,52.80
2023-07-02T21:37:28.377Z,52.70
2023-07-02T21:39:55.930Z,52.60
2023-07-02T21:42:23.859Z,52.90
2023-07-02T21:44:51.057Z,53.00
2023-07-02T21:47:18.022Z,53.00
2023-07-02T21:49:44.994Z,53.00
2023-07-02T21:52:12.089Z,52.90
2023-07-02T21:54:39.105Z,52.90
2023-07-02T21:57:06.945Z,52.80
2023-07-02T21:59:34.088Z,52.80
2023-07-02T22:02:01.121Z,52.60
2023-07-02T22:04:28.167Z,52.70
2023-07-02T22:06:57.877Z,52.40
2023-07-02T22:09:24.848Z,52.60
2023-07-02T22:11:51.862Z,52.60
2023-07-02T22:14:18.940Z,52.70
2023-07-02T22:16:46.742Z,52.70
2023-07-02T22:19:13.727Z,52.60
2023-07-02T22:21:47.835Z,52.50
2023-07-02T22:24:23.781Z,52.40
2023-07-02T22:26:53.570Z,52.70
2023-07-02T22:29:20.911Z,52.80
2023-07-02T22:31:47.950Z,52.90
2023-07-02T22:34:14.961Z,52.90
2023-07-02T22:36:42.534Z,53.00
2023-07-02T22:39:09.520Z,52.90
2023-07-02T22:41:36.469Z,52.90
2023-07-02T22:44:03.572Z,53.00
2023-07-02T22:46:30.723Z,52.90
2023-07-02T22:48:57.829Z,52.70
2023-07-02T22:51:25.214Z,52.70
2023-07-02T22:53:53.046Z,52.70
2023-07-02T22:56:20.233Z,52.50
2023-07-02T22:58:48.015Z,52.70
2023-07-02T23:01:16.915Z,53.20
2023-07-02T23:03:44.078Z,53.20
2023-07-02T23:06:11.084Z,53.40
2023-07-02T23:08:38.050Z,53.30
2023-07-02T23:11:05.699Z,52.70
2023-07-02T23:13:32.710Z,53.10
2023-07-02T23:16:03.716Z,52.90
2023-07-02T23:18:35.427Z,53.50
2023-07-02T23:21:06.203Z,53.40
2023-07-02T23:23:33.580Z,53.20
2023-07-02T23:26:00.570Z,53.50
2023-07-02T23:28:28.019Z,53.10
2023-07-02T23:30:54.987Z,53.20
2023-07-02T23:33:24.784Z,53.20
2023-07-02T23:35:52.782Z,53.20
2023-07-02T23:38:19.942Z,53.00
2023-07-02T23:40:47.753Z,52.90
2023-07-02T23:43:14.833Z,52.90
2023-07-02T23:45:41.971Z,52.70
2023-07-02T23:48:09.526Z,52.80
2023-07-02T23:50:37.886Z,52.60
2023-07-02T23:53:05.485Z,52.60
2023-07-02T23:55:32.620Z,52.40
2023-07-02T23:57:59.995Z,52.60
